createdAt,value
2019-01-27T00:03:47.008Z,1.20
2019-01-27T00:09:51.325Z,1.30
2019-01-27T00:15:55.639Z,1.22
2019-01-27T00:21:59.913Z,1.02
2019-01-27T00:28:04.403Z,1.35
2019-01-27T00:34:08.622Z,1.47
2019-01-27T00:40:13.500Z,1.32
2019-01-27T00:46:17.822Z,1.45
2019-01-27T00:52:22.061Z,1.45
2019-01-27T00:58:29.307Z,1.00
2019-01-27T01:04:33.551Z,1.10
2019-01-27T01:10:37.847Z,1.02
2019-01-27T01:16:42.820Z,1.15
2019-01-27T01:22:47.577Z,1.10
2019-01-27T01:28:51.986Z,1.50
2019-01-27T01:34:56.505Z,1.60
2019-01-27T01:41:00.787Z,1.60
2019-01-27T01:47:05.084Z,1.42
2019-01-27T01:53:09.296Z,1.70
2019-01-27T01:59:13.529Z,1.52
2019-01-27T02:05:18.538Z,1.42
2019-01-27T02:11:22.772Z,1.42
2019-01-27T02:17:27.158Z,2.08
2019-01-27T02:23:31.358Z,1.32
2019-01-27T02:29:35.642Z,1.32
2019-01-27T02:35:40.145Z,1.67
2019-01-27T02:41:44.510Z,1.65
2019-01-27T02:47:48.735Z,2.15
2019-01-27T02:53:52.986Z,1.70
2019-01-27T02:59:57.196Z,1.87
2019-01-27T03:06:30.655Z,1.98
2019-01-27T03:12:34.954Z,2.08
2019-01-27T03:18:39.376Z,1.32
2019-01-27T03:24:43.593Z,1.50
2019-01-27T03:30:47.925Z,1.67
2019-01-27T03:36:52.154Z,1.70
2019-01-27T03:42:56.532Z,1.92
2019-01-27T03:49:00.990Z,2.22
2019-01-27T03:55:07.135Z,1.80
2019-01-27T04:01:11.411Z,1.57
2019-01-27T04:07:15.639Z,1.85
2019-01-27T04:13:19.873Z,2.47
2019-01-27T04:19:24.268Z,2.00
2019-01-27T04:25:28.553Z,2.40
2019-01-27T04:31:32.775Z,2.00
2019-01-27T04:37:37.003Z,2.25
2019-01-27T04:43:41.266Z,1.67
2019-01-27T04:49:45.537Z,1.90
2019-01-27T04:55:49.766Z,1.85
2019-01-27T05:01:53.999Z,1.70
2019-01-27T05:07:58.423Z,1.57
2019-01-27T05:14:02.799Z,1.77
2019-01-27T05:20:07.995Z,1.60
2019-01-27T05:26:12.210Z,1.27
2019-01-27T05:32:16.503Z,1.65
2019-01-27T05:38:20.721Z,1.70
2019-01-27T05:44:25.043Z,1.82
2019-01-27T05:50:29.347Z,1.70
2019-01-27T05:56:33.640Z,1.67
2019-01-27T06:02:37.935Z,2.00
2019-01-27T06:08:42.147Z,2.05
2019-01-27T06:14:46.353Z,1.37
2019-01-27T06:20:50.606Z,2.17
2019-01-27T06:26:54.963Z,2.45
2019-01-27T06:33:04.589Z,2.12
2019-01-27T06:39:10.376Z,1.60
2019-01-27T06:45:14.796Z,1.65
2019-01-27T06:51:19.320Z,1.50
2019-01-27T06:57:23.537Z,1.37
2019-01-27T07:03:45.285Z,1.45
2019-01-27T07:09:57.090Z,1.60
2019-01-27T07:16:19.360Z,1.55
2019-01-27T07:22:35.954Z,1.77
2019-01-27T07:28:52.018Z,2.67
2019-01-27T07:35:13.719Z,2.40
2019-01-27T07:41:31.108Z,2.60
2019-01-27T07:47:50.322Z,1.80
2019-01-27T07:54:13.806Z,1.67
2019-01-27T08:00:38.058Z,1.50
2019-01-27T08:06:59.660Z,1.90
2019-01-27T08:13:16.550Z,1.65
2019-01-27T08:19:42.846Z,1.65
2019-01-27T08:26:21.252Z,1.90
2019-01-27T08:32:47.624Z,3.08
2019-01-27T08:39:09.438Z,3.05
2019-01-27T08:45:31.167Z,3.90
2019-01-27T08:51:35.493Z,4.67
2019-01-27T08:57:39.734Z,2.17
2019-01-27T09:03:59.141Z,3.05
2019-01-27T09:10:28.303Z,3.02
2019-01-27T09:16:45.041Z,3.10
2019-01-27T09:23:05.785Z,4.15
2019-01-27T09:29:14.007Z,2.80
2019-01-27T09:35:46.429Z,1.98
2019-01-27T09:42:03.158Z,2.15
2019-01-27T09:48:25.089Z,1.60
2019-01-27T09:54:39.075Z,1.37
2019-01-27T10:00:47.797Z,0.88
2019-01-27T10:07:11.087Z,1.07
2019-01-27T10:13:34.327Z,0.90
2019-01-27T10:19:56.181Z,1.52
2019-01-27T10:26:07.394Z,1.30
2019-01-27T10:32:26.484Z,1.07
2019-01-27T10:38:52.549Z,1.55
2019-01-27T10:45:26.353Z,1.32
2019-01-27T10:51:43.075Z,1.60
2019-01-27T10:58:04.153Z,1.35
2019-01-27T11:04:36.502Z,1.22
2019-01-27T11:11:00.518Z,1.47
2019-01-27T11:17:29.993Z,1.27
2019-01-27T11:24:03.174Z,1.00
2019-01-27T11:30:34.558Z,1.35
2019-01-27T11:36:59.429Z,1.42
2019-01-27T11:43:21.841Z,1.50
2019-01-27T11:49:48.236Z,1.30
2019-01-27T11:55:55.231Z,1.50
2019-01-27T12:01:59.546Z,1.32
2019-01-27T12:08:03.897Z,1.75
2019-01-27T12:14:08.207Z,1.42
2019-01-27T12:20:12.797Z,1.40
2019-01-27T12:26:17.024Z,1.20
2019-01-27T12:32:21.435Z,1.30
2019-01-27T12:38:25.735Z,1.67
2019-01-27T12:44:30.085Z,1.47
2019-01-27T12:50:34.319Z,0.80
2019-01-27T12:56:38.617Z,0.85
2019-01-27T13:02:42.839Z,0.82
2019-01-27T13:08:47.149Z,0.85
2019-01-27T13:14:51.367Z,1.10
2019-01-27T13:20:55.668Z,0.93
2019-01-27T13:26:59.931Z,1.00
2019-01-27T13:33:04.221Z,0.90
2019-01-27T13:39:09.280Z,1.90
2019-01-27T13:45:16.122Z,1.00
2019-01-27T13:51:20.398Z,1.32
2019-01-27T13:57:24.660Z,1.50
2019-01-27T14:03:28.995Z,1.00
2019-01-27T14:09:33.211Z,1.10
2019-01-27T14:15:37.614Z,1.30
2019-01-27T14:21:42.140Z,1.98
2019-01-27T14:27:46.370Z,1.00
2019-01-27T14:33:50.617Z,1.35
2019-01-27T14:39:54.828Z,1.32
2019-01-27T14:45:59.144Z,1.02
2019-01-27T14:52:03.450Z,1.20
2019-01-27T14:58:07.743Z,1.10
2019-01-27T15:04:11.968Z,1.20
2019-01-27T15:10:17.834Z,1.17
2019-01-27T15:16:22.048Z,1.37
2019-01-27T15:22:26.275Z,1.35
2019-01-27T15:28:30.579Z,0.98
2019-01-27T15:34:34.804Z,1.70
2019-01-27T15:40:39.378Z,0.62
2019-01-27T15:46:43.632Z,1.32
2019-01-27T15:52:48.242Z,1.40
2019-01-27T15:58:52.559Z,2.10
2019-01-27T16:04:56.862Z,2.52
2019-01-27T16:11:01.147Z,2.27
2019-01-27T16:17:05.871Z,2.12
2019-01-27T16:23:15.429Z,3.00
2019-01-27T16:29:26.248Z,2.95
2019-01-27T16:35:30.545Z,1.25
2019-01-27T16:41:34.795Z,1.15
2019-01-27T16:47:39.143Z,1.20
2019-01-27T16:53:43.349Z,1.70
2019-01-27T16:59:47.647Z,2.37
2019-01-27T17:05:51.959Z,2.70
2019-01-27T17:11:56.179Z,2.40
2019-01-27T17:18:00.411Z,2.83
2019-01-27T17:24:05.079Z,2.85
2019-01-27T17:30:12.473Z,2.12
2019-01-27T17:36:16.871Z,1.75
2019-01-27T17:42:21.272Z,2.05
2019-01-27T17:48:25.631Z,1.47
2019-01-27T17:54:30.055Z,1.70
2019-01-27T18:00:51.757Z,1.60
2019-01-27T18:07:20.846Z,1.80
2019-01-27T18:13:53.083Z,2.80
2019-01-27T18:19:57.356Z,2.17
2019-01-27T18:26:01.675Z,2.22
2019-01-27T18:32:06.168Z,2.22
2019-01-27T18:38:10.787Z,2.60
2019-01-27T18:44:15.230Z,3.05
2019-01-27T18:50:20.096Z,1.98
2019-01-27T18:56:43.241Z,2.15
2019-01-27T19:02:54.686Z,2.27
2019-01-27T19:09:16.900Z,2.60
2019-01-27T19:15:39.106Z,3.20
2019-01-27T19:22:11.807Z,2.58
2019-01-27T19:28:41.782Z,3.00
2019-01-27T19:34:58.252Z,4.10
2019-01-27T19:41:27.580Z,5.22
2019-01-27T19:47:49.399Z,10.65
2019-01-27T19:54:12.639Z,10.78
2019-01-27T20:00:50.929Z,13.05
2019-01-27T20:07:12.617Z,19.45
2019-01-27T20:13:28.320Z,20.27
2019-01-27T20:19:57.532Z,13.53
2019-01-27T20:26:26.656Z,15.80
2019-01-27T20:32:48.965Z,11.20
2019-01-27T20:39:21.256Z,16.93
2019-01-27T20:45:38.199Z,25.62
2019-01-27T20:52:06.572Z,32.45
2019-01-27T20:58:24.680Z,33.25
2019-01-27T21:04:36.463Z,43.78
2019-01-27T21:11:02.544Z,23.55
2019-01-27T21:17:44.118Z,8.10
2019-01-27T21:23:48.436Z,31.40
2019-01-27T21:29:52.746Z,3.95
2019-01-27T21:35:57.110Z,7.03
2019-01-27T21:42:01.389Z,22.85
2019-01-27T21:48:05.761Z,21.95
2019-01-27T21:54:11.140Z,27.00
2019-01-27T22:00:23.115Z,18.55
2019-01-27T22:06:27.336Z,21.12
2019-01-27T22:12:31.556Z,9.50
2019-01-27T22:18:35.930Z,22.58
2019-01-27T22:24:40.126Z,18.67
2019-01-27T22:30:44.444Z,14.98
2019-01-27T22:36:48.632Z,14.53
2019-01-27T22:42:52.840Z,9.93
2019-01-27T22:48:57.180Z,13.30
2019-01-27T22:55:01.493Z,10.90
2019-01-27T23:01:17.054Z,9.08
2019-01-27T23:07:21.302Z,13.32
2019-01-27T23:13:25.537Z,10.03
2019-01-27T23:19:29.805Z,8.38
2019-01-27T23:25:34.124Z,12.07
2019-01-27T23:31:38.495Z,11.20
2019-01-27T23:37:43.075Z,9.13
2019-01-27T23:43:47.297Z,6.28
2019-01-27T23:49:51.542Z,7.85
2019-01-27T23:55:55.866Z,7.87
